sensor_id;sensor_type;location;lat;lon;timestamp;P1;durP1;ratioP1;P2;durP2;ratioP2
23078;SDS011;11707;50.830;4.364;2022-12-18T00:02:18;28.63;;;16.67;;
23078;SDS011;11707;50.830;4.364;2022-12-18T00:04:43;30.45;;;17.50;;
23078;SDS011;11707;50.830;4.364;2022-12-18T00:07:09;30.67;;;18.73;;
23078;SDS011;11707;50.830;4.364;2022-12-18T00:09:35;28.83;;;17.98;;
23078;SDS011;11707;50.830;4.364;2022-12-18T00:12:01;35.97;;;19.00;;
23078;SDS011;11707;50.830;4.364;2022-12-18T00:14:27;29.85;;;16.30;;
23078;SDS011;11707;50.830;4.364;2022-12-18T00:16:52;32.00;;;17.98;;
23078;SDS011;11707;50.830;4.364;2022-12-18T00:19:18;34.40;;;17.73;;
23078;SDS011;11707;50.830;4.364;2022-12-18T00:21:44;30.88;;;18.50;;
23078;SDS011;11707;50.830;4.364;2022-12-18T00:24:10;32.65;;;19.05;;
23078;SDS011;11707;50.830;4.364;2022-12-18T00:26:37;32.13;;;17.45;;
23078;SDS011;11707;50.830;4.364;2022-12-18T00:29:09;27.25;;;16.58;;
23078;SDS011;11707;50.830;4.364;2022-12-18T00:31:38;31.40;;;17.63;;
23078;SDS011;11707;50.830;4.364;2022-12-18T00:34:05;32.13;;;17.10;;
23078;SDS011;11707;50.830;4.364;2022-12-18T00:36:32;26.98;;;16.30;;
23078;SDS011;11707;50.830;4.364;2022-12-18T00:39:02;32.90;;;16.02;;
23078;SDS011;11707;50.830;4.364;2022-12-18T00:41:29;30.10;;;16.45;;
23078;SDS011;11707;50.830;4.364;2022-12-18T00:44:15;31.10;;;16.27;;
23078;SDS011;11707;50.830;4.364;2022-12-18T00:46:42;28.70;;;15.80;;
23078;SDS011;11707;50.830;4.364;2022-12-18T00:49:09;29.38;;;16.77;;
23078;SDS011;11707;50.830;4.364;2022-12-18T00:51:40;28.05;;;15.68;;
23078;SDS011;11707;50.830;4.364;2022-12-18T00:54:06;25.52;;;14.32;;
23078;SDS011;11707;50.830;4.364;2022-12-18T00:56:31;26.45;;;14.55;;
23078;SDS011;11707;50.830;4.364;2022-12-18T00:58:57;22.92;;;13.38;;
23078;SDS011;11707;50.830;4.364;2022-12-18T01:01:23;24.80;;;13.13;;
23078;SDS011;11707;50.830;4.364;2022-12-18T01:03:48;20.83;;;11.55;;
23078;SDS011;11707;50.830;4.364;2022-12-18T01:06:15;23.15;;;13.00;;
23078;SDS011;11707;50.830;4.364;2022-12-18T01:08:41;20.58;;;12.13;;
23078;SDS011;11707;50.830;4.364;2022-12-18T01:11:08;19.65;;;11.27;;
23078;SDS011;11707;50.830;4.364;2022-12-18T01:13:41;19.90;;;11.20;;
23078;SDS011;11707;50.830;4.364;2022-12-18T01:16:07;19.83;;;11.55;;
23078;SDS011;11707;50.830;4.364;2022-12-18T01:18:35;21.27;;;12.23;;
23078;SDS011;11707;50.830;4.364;2022-12-18T01:21:05;20.58;;;12.13;;
23078;SDS011;11707;50.830;4.364;2022-12-18T01:23:32;21.85;;;12.30;;
23078;SDS011;11707;50.830;4.364;2022-12-18T01:25:58;21.13;;;12.60;;
23078;SDS011;11707;50.830;4.364;2022-12-18T01:28:28;21.88;;;11.73;;
23078;SDS011;11707;50.830;4.364;2022-12-18T01:30:54;21.35;;;10.93;;
23078;SDS011;11707;50.830;4.364;2022-12-18T01:33:19;17.30;;;11.15;;
23078;SDS011;11707;50.830;4.364;2022-12-18T01:35:45;19.48;;;11.35;;
23078;SDS011;11707;50.830;4.364;2022-12-18T01:38:11;17.77;;;10.85;;
23078;SDS011;11707;50.830;4.364;2022-12-18T01:40:36;19.17;;;9.60;;
23078;SDS011;11707;50.830;4.364;2022-12-18T01:43:02;17.42;;;10.25;;
23078;SDS011;11707;50.830;4.364;2022-12-18T01:45:28;17.95;;;11.07;;
23078;SDS011;11707;50.830;4.364;2022-12-18T01:48:00;19.35;;;10.63;;
23078;SDS011;11707;50.830;4.364;2022-12-18T01:50:31;20.08;;;10.98;;
23078;SDS011;11707;50.830;4.364;2022-12-18T01:55:32;17.90;;;10.93;;
23078;SDS011;11707;50.830;4.364;2022-12-18T01:58:02;17.70;;;10.77;;
23078;SDS011;11707;50.830;4.364;2022-12-18T02:00:29;18.02;;;10.30;;
23078;SDS011;11707;50.830;4.364;2022-12-18T02:02:55;18.42;;;10.98;;
23078;SDS011;11707;50.830;4.364;2022-12-18T02:06:07;20.27;;;10.90;;
23078;SDS011;11707;50.830;4.364;2022-12-18T02:08:27;26.02;;;11.52;;
23078;SDS011;11707;50.830;4.364;2022-12-18T02:17:20;17.23;;;10.48;;
23078;SDS011;11707;50.830;4.364;2022-12-18T02:28:11;18.35;;;10.43;;
23078;SDS011;11707;50.830;4.364;2022-12-18T02:30:40;16.40;;;10.50;;
23078;SDS011;11707;50.830;4.364;2022-12-18T02:33:08;17.67;;;10.63;;
23078;SDS011;11707;50.830;4.364;2022-12-18T02:35:36;17.88;;;10.52;;
23078;SDS011;11707;50.830;4.364;2022-12-18T02:38:03;19.42;;;10.88;;
23078;SDS011;11707;50.830;4.364;2022-12-18T02:40:30;17.95;;;10.82;;
23078;SDS011;11707;50.830;4.364;2022-12-18T02:43:02;19.33;;;10.30;;
23078;SDS011;11707;50.830;4.364;2022-12-18T02:45:32;18.85;;;9.75;;
23078;SDS011;11707;50.830;4.364;2022-12-18T02:47:57;17.95;;;9.40;;
23078;SDS011;11707;50.830;4.364;2022-12-18T02:50:37;24.42;;;10.43;;
23078;SDS011;11707;50.830;4.364;2022-12-18T02:53:11;18.60;;;9.57;;
23078;SDS011;11707;50.830;4.364;2022-12-18T02:56:07;19.08;;;10.63;;
23078;SDS011;11707;50.830;4.364;2022-12-18T03:01:28;21.90;;;11.20;;
23078;SDS011;11707;50.830;4.364;2022-12-18T03:04:02;20.00;;;11.43;;
23078;SDS011;11707;50.830;4.364;2022-12-18T03:06:38;19.58;;;10.77;;
23078;SDS011;11707;50.830;4.364;2022-12-18T03:09:12;18.17;;;11.40;;
23078;SDS011;11707;50.830;4.364;2022-12-18T03:11:45;18.92;;;9.77;;
23078;SDS011;11707;50.830;4.364;2022-12-18T03:14:36;17.75;;;9.48;;
23078;SDS011;11707;50.830;4.364;2022-12-18T03:17:05;21.23;;;10.43;;
23078;SDS011;11707;50.830;4.364;2022-12-18T03:19:35;24.45;;;12.50;;
23078;SDS011;11707;50.830;4.364;2022-12-18T03:22:04;17.80;;;9.95;;
23078;SDS011;11707;50.830;4.364;2022-12-18T03:24:32;17.17;;;9.57;;
23078;SDS011;11707;50.830;4.364;2022-12-18T03:27:01;16.77;;;9.43;;
23078;SDS011;11707;50.830;4.364;2022-12-18T03:29:33;16.95;;;9.40;;
23078;SDS011;11707;50.830;4.364;2022-12-18T03:32:11;19.63;;;9.50;;
23078;SDS011;11707;50.830;4.364;2022-12-18T03:34:46;17.58;;;8.57;;
23078;SDS011;11707;50.830;4.364;2022-12-18T03:37:15;13.65;;;8.52;;
23078;SDS011;11707;50.830;4.364;2022-12-18T03:39:41;18.25;;;9.38;;
23078;SDS011;11707;50.830;4.364;2022-12-18T03:44:51;17.17;;;8.73;;
23078;SDS011;11707;50.830;4.364;2022-12-18T03:53:19;17.05;;;9.30;;
23078;SDS011;11707;50.830;4.364;2022-12-18T03:56:00;15.55;;;9.05;;
23078;SDS011;11707;50.830;4.364;2022-12-18T03:58:29;17.98;;;8.98;;
23078;SDS011;11707;50.830;4.364;2022-12-18T04:01:00;13.80;;;8.30;;
23078;SDS011;11707;50.830;4.364;2022-12-18T04:03:29;17.20;;;8.90;;
23078;SDS011;11707;50.830;4.364;2022-12-18T04:05:56;12.63;;;7.20;;
23078;SDS011;11707;50.830;4.364;2022-12-18T04:08:24;11.05;;;6.07;;
23078;SDS011;11707;50.830;4.364;2022-12-18T04:10:51;15.20;;;8.25;;
23078;SDS011;11707;50.830;4.364;2022-12-18T04:13:50;14.02;;;8.02;;
23078;SDS011;11707;50.830;4.364;2022-12-18T04:16:08;16.75;;;8.18;;
23078;SDS011;11707;50.830;4.364;2022-12-18T04:18:35;12.90;;;7.30;;
23078;SDS011;11707;50.830;4.364;2022-12-18T04:21:01;13.38;;;8.27;;
23078;SDS011;11707;50.830;4.364;2022-12-18T04:23:27;12.35;;;7.60;;
23078;SDS011;11707;50.830;4.364;2022-12-18T04:25:53;15.52;;;8.18;;
23078;SDS011;11707;50.830;4.364;2022-12-18T04:28:19;14.70;;;8.60;;
23078;SDS011;11707;50.830;4.364;2022-12-18T04:30:45;12.25;;;7.43;;
23078;SDS011;11707;50.830;4.364;2022-12-18T04:33:11;11.63;;;7.07;;
23078;SDS011;11707;50.830;4.364;2022-12-18T04:35:40;15.25;;;7.72;;
23078;SDS011;11707;50.830;4.364;2022-12-18T04:38:07;14.68;;;7.13;;
23078;SDS011;11707;50.830;4.364;2022-12-18T04:40:33;11.18;;;7.40;;
23078;SDS011;11707;50.830;4.364;2022-12-18T04:42:59;14.45;;;7.82;;
23078;SDS011;11707;50.830;4.364;2022-12-18T04:45:25;16.25;;;8.90;;
23078;SDS011;11707;50.830;4.364;2022-12-18T04:47:51;13.20;;;7.55;;
23078;SDS011;11707;50.830;4.364;2022-12-18T04:50:16;15.35;;;7.88;;
23078;SDS011;11707;50.830;4.364;2022-12-18T04:52:42;12.98;;;8.10;;
23078;SDS011;11707;50.830;4.364;2022-12-18T04:55:08;13.00;;;7.65;;
23078;SDS011;11707;50.830;4.364;2022-12-18T04:57:36;17.05;;;7.63;;
23078;SDS011;11707;50.830;4.364;2022-12-18T05:00:05;16.45;;;7.97;;
23078;SDS011;11707;50.830;4.364;2022-12-18T05:02:32;14.20;;;7.15;;
23078;SDS011;11707;50.830;4.364;2022-12-18T05:04:57;13.35;;;7.47;;
23078;SDS011;11707;50.830;4.364;2022-12-18T05:07:23;14.88;;;7.75;;
23078;SDS011;11707;50.830;4.364;2022-12-18T05:09:49;12.15;;;6.53;;
23078;SDS011;11707;50.830;4.364;2022-12-18T05:12:16;12.82;;;7.10;;
23078;SDS011;11707;50.830;4.364;2022-12-18T05:14:41;15.02;;;7.97;;
23078;SDS011;11707;50.830;4.364;2022-12-18T05:17:07;14.05;;;6.90;;
23078;SDS011;11707;50.830;4.364;2022-12-18T05:19:33;13.82;;;7.90;;
23078;SDS011;11707;50.830;4.364;2022-12-18T05:21:58;23.35;;;7.53;;
23078;SDS011;11707;50.830;4.364;2022-12-18T05:24:25;12.93;;;6.80;;
23078;SDS011;11707;50.830;4.364;2022-12-18T05:26:50;12.00;;;6.50;;
23078;SDS011;11707;50.830;4.364;2022-12-18T05:29:19;12.32;;;7.03;;
23078;SDS011;11707;50.830;4.364;2022-12-18T05:31:45;11.35;;;5.90;;
23078;SDS011;11707;50.830;4.364;2022-12-18T05:34:11;10.52;;;6.97;;
23078;SDS011;11707;50.830;4.364;2022-12-18T05:36:36;12.73;;;7.05;;
23078;SDS011;11707;50.830;4.364;2022-12-18T05:39:02;15.20;;;7.68;;
23078;SDS011;11707;50.830;4.364;2022-12-18T05:41:28;11.82;;;6.93;;
23078;SDS011;11707;50.830;4.364;2022-12-18T05:43:54;16.42;;;7.55;;
23078;SDS011;11707;50.830;4.364;2022-12-18T05:46:19;11.35;;;6.78;;
23078;SDS011;11707;50.830;4.364;2022-12-18T05:48:45;13.80;;;7.88;;
23078;SDS011;11707;50.830;4.364;2022-12-18T05:51:13;13.27;;;7.05;;
23078;SDS011;11707;50.830;4.364;2022-12-18T05:53:41;13.35;;;7.60;;
23078;SDS011;11707;50.830;4.364;2022-12-18T05:56:09;11.10;;;6.32;;
23078;SDS011;11707;50.830;4.364;2022-12-18T05:58:36;14.32;;;6.53;;
23078;SDS011;11707;50.830;4.364;2022-12-18T06:01:07;11.55;;;6.57;;
23078;SDS011;11707;50.830;4.364;2022-12-18T06:03:35;12.50;;;7.37;;
23078;SDS011;11707;50.830;4.364;2022-12-18T06:06:01;10.90;;;7.05;;
23078;SDS011;11707;50.830;4.364;2022-12-18T06:08:27;15.60;;;7.28;;
23078;SDS011;11707;50.830;4.364;2022-12-18T06:10:53;10.50;;;6.68;;
23078;SDS011;11707;50.830;4.364;2022-12-18T06:13:19;13.73;;;6.18;;
23078;SDS011;11707;50.830;4.364;2022-12-18T06:15:45;11.70;;;6.30;;
23078;SDS011;11707;50.830;4.364;2022-12-18T06:18:11;11.70;;;6.45;;
23078;SDS011;11707;50.830;4.364;2022-12-18T06:20:37;12.50;;;6.80;;
23078;SDS011;11707;50.830;4.364;2022-12-18T06:23:05;11.40;;;6.65;;
23078;SDS011;11707;50.830;4.364;2022-12-18T06:25:31;12.57;;;5.75;;
23078;SDS011;11707;50.830;4.364;2022-12-18T06:27:58;11.27;;;7.20;;
23078;SDS011;11707;50.830;4.364;2022-12-18T06:30:23;9.05;;;4.97;;
23078;SDS011;11707;50.830;4.364;2022-12-18T06:32:49;12.10;;;6.90;;
23078;SDS011;11707;50.830;4.364;2022-12-18T06:35:15;10.10;;;6.40;;
23078;SDS011;11707;50.830;4.364;2022-12-18T06:37:41;9.80;;;5.43;;
23078;SDS011;11707;50.830;4.364;2022-12-18T06:40:07;11.30;;;5.38;;
23078;SDS011;11707;50.830;4.364;2022-12-18T06:42:33;10.18;;;6.07;;
23078;SDS011;11707;50.830;4.364;2022-12-18T06:44:59;10.77;;;6.10;;
23078;SDS011;11707;50.830;4.364;2022-12-18T06:47:24;11.18;;;5.68;;
23078;SDS011;11707;50.830;4.364;2022-12-18T06:49:50;13.57;;;5.75;;
23078;SDS011;11707;50.830;4.364;2022-12-18T06:52:16;13.55;;;7.22;;
23078;SDS011;11707;50.830;4.364;2022-12-18T06:54:41;12.40;;;6.30;;
23078;SDS011;11707;50.830;4.364;2022-12-18T06:57:07;10.23;;;6.30;;
23078;SDS011;11707;50.830;4.364;2022-12-18T06:59:33;9.70;;;6.28;;
23078;SDS011;11707;50.830;4.364;2022-12-18T07:01:59;10.00;;;5.45;;
23078;SDS011;11707;50.830;4.364;2022-12-18T07:04:28;11.98;;;6.43;;
23078;SDS011;11707;50.830;4.364;2022-12-18T07:06:54;9.65;;;5.75;;
23078;SDS011;11707;50.830;4.364;2022-12-18T07:09:20;11.55;;;6.18;;
23078;SDS011;11707;50.830;4.364;2022-12-18T07:11:46;9.45;;;5.57;;
23078;SDS011;11707;50.830;4.364;2022-12-18T07:14:12;14.48;;;6.07;;
23078;SDS011;11707;50.830;4.364;2022-12-18T07:16:38;13.45;;;6.47;;
23078;SDS011;11707;50.830;4.364;2022-12-18T07:19:03;11.20;;;6.28;;
23078;SDS011;11707;50.830;4.364;2022-12-18T07:21:29;14.40;;;6.63;;
23078;SDS011;11707;50.830;4.364;2022-12-18T07:23:55;10.10;;;5.60;;
23078;SDS011;11707;50.830;4.364;2022-12-18T07:26:22;14.45;;;6.05;;
23078;SDS011;11707;50.830;4.364;2022-12-18T07:28:48;13.15;;;6.25;;
23078;SDS011;11707;50.830;4.364;2022-12-18T07:31:18;9.25;;;5.78;;
23078;SDS011;11707;50.830;4.364;2022-12-18T07:33:45;8.95;;;5.65;;
23078;SDS011;11707;50.830;4.364;2022-12-18T07:36:11;8.85;;;5.28;;
23078;SDS011;11707;50.830;4.364;2022-12-18T07:38:38;12.27;;;6.80;;
23078;SDS011;11707;50.830;4.364;2022-12-18T07:41:04;12.48;;;6.13;;
23078;SDS011;11707;50.830;4.364;2022-12-18T07:43:32;13.18;;;6.72;;
23078;SDS011;11707;50.830;4.364;2022-12-18T07:45:58;11.23;;;6.43;;
23078;SDS011;11707;50.830;4.364;2022-12-18T07:48:24;10.75;;;5.80;;
23078;SDS011;11707;50.830;4.364;2022-12-18T07:50:50;6.85;;;3.92;;
23078;SDS011;11707;50.830;4.364;2022-12-18T07:53:16;11.65;;;6.13;;
23078;SDS011;11707;50.830;4.364;2022-12-18T07:55:42;9.55;;;5.63;;
23078;SDS011;11707;50.830;4.364;2022-12-18T07:58:08;10.75;;;6.47;;
23078;SDS011;11707;50.830;4.364;2022-12-18T08:00:34;12.00;;;6.40;;
23078;SDS011;11707;50.830;4.364;2022-12-18T08:03:00;9.50;;;5.63;;
23078;SDS011;11707;50.830;4.364;2022-12-18T08:05:26;9.65;;;6.18;;
23078;SDS011;11707;50.830;4.364;2022-12-18T08:07:52;9.55;;;5.20;;
23078;SDS011;11707;50.830;4.364;2022-12-18T08:10:18;11.55;;;6.18;;
23078;SDS011;11707;50.830;4.364;2022-12-18T08:12:44;12.15;;;5.82;;
23078;SDS011;11707;50.830;4.364;2022-12-18T08:15:10;9.13;;;5.28;;
23078;SDS011;11707;50.830;4.364;2022-12-18T08:17:36;10.48;;;5.70;;
23078;SDS011;11707;50.830;4.364;2022-12-18T08:20:02;11.30;;;6.03;;
23078;SDS011;11707;50.830;4.364;2022-12-18T08:22:28;12.32;;;5.63;;
23078;SDS011;11707;50.830;4.364;2022-12-18T08:24:54;12.18;;;6.18;;
23078;SDS011;11707;50.830;4.364;2022-12-18T08:27:19;11.02;;;5.43;;
23078;SDS011;11707;50.830;4.364;2022-12-18T08:29:45;11.75;;;5.78;;
23078;SDS011;11707;50.830;4.364;2022-12-18T08:32:11;11.23;;;6.05;;
23078;SDS011;11707;50.830;4.364;2022-12-18T08:34:36;13.68;;;6.85;;
23078;SDS011;11707;50.830;4.364;2022-12-18T08:37:03;12.45;;;6.05;;
23078;SDS011;11707;50.830;4.364;2022-12-18T08:39:28;12.63;;;6.78;;
23078;SDS011;11707;50.830;4.364;2022-12-18T08:41:54;8.15;;;5.25;;
23078;SDS011;11707;50.830;4.364;2022-12-18T08:44:38;9.05;;;6.25;;
23078;SDS011;11707;50.830;4.364;2022-12-18T08:47:07;8.98;;;5.03;;
23078;SDS011;11707;50.830;4.364;2022-12-18T08:49:33;9.48;;;4.65;;
23078;SDS011;11707;50.830;4.364;2022-12-18T08:52:00;13.65;;;6.78;;
23078;SDS011;11707;50.830;4.364;2022-12-18T08:54:27;10.68;;;6.80;;
23078;SDS011;11707;50.830;4.364;2022-12-18T08:56:53;11.95;;;7.10;;
23078;SDS011;11707;50.830;4.364;2022-12-18T08:59:19;9.57;;;6.03;;
23078;SDS011;11707;50.830;4.364;2022-12-18T09:01:45;11.82;;;6.95;;
23078;SDS011;11707;50.830;4.364;2022-12-18T09:04:12;11.68;;;7.15;;
23078;SDS011;11707;50.830;4.364;2022-12-18T09:06:38;10.63;;;6.13;;
23078;SDS011;11707;50.830;4.364;2022-12-18T09:09:05;12.60;;;7.10;;
23078;SDS011;11707;50.830;4.364;2022-12-18T09:11:31;9.27;;;6.28;;
23078;SDS011;11707;50.830;4.364;2022-12-18T09:13:58;14.55;;;6.93;;
23078;SDS011;11707;50.830;4.364;2022-12-18T09:16:26;13.68;;;7.20;;
23078;SDS011;11707;50.830;4.364;2022-12-18T09:18:53;12.57;;;5.60;;
23078;SDS011;11707;50.830;4.364;2022-12-18T09:21:24;11.02;;;6.40;;
23078;SDS011;11707;50.830;4.364;2022-12-18T09:23:52;12.45;;;7.05;;
23078;SDS011;11707;50.830;4.364;2022-12-18T09:26:19;11.98;;;7.32;;
23078;SDS011;11707;50.830;4.364;2022-12-18T09:28:45;12.80;;;8.18;;
23078;SDS011;11707;50.830;4.364;2022-12-18T09:31:12;11.98;;;7.45;;
23078;SDS011;11707;50.830;4.364;2022-12-18T09:33:39;14.02;;;8.43;;
23078;SDS011;11707;50.830;4.364;2022-12-18T09:36:07;12.77;;;6.93;;
23078;SDS011;11707;50.830;4.364;2022-12-18T09:38:39;13.48;;;8.70;;
23078;SDS011;11707;50.830;4.364;2022-12-18T09:41:14;12.75;;;7.38;;
23078;SDS011;11707;50.830;4.364;2022-12-18T09:43:57;14.38;;;8.20;;
23078;SDS011;11707;50.830;4.364;2022-12-18T09:46:27;14.05;;;8.50;;
23078;SDS011;11707;50.830;4.364;2022-12-18T09:48:59;13.30;;;7.80;;
23078;SDS011;11707;50.830;4.364;2022-12-18T09:51:32;13.75;;;7.57;;
23078;SDS011;11707;50.830;4.364;2022-12-18T09:54:04;12.98;;;7.80;;
23078;SDS011;11707;50.830;4.364;2022-12-18T09:56:41;12.82;;;7.55;;
23078;SDS011;11707;50.830;4.364;2022-12-18T09:59:15;14.63;;;7.90;;
23078;SDS011;11707;50.830;4.364;2022-12-18T10:01:49;10.80;;;7.32;;
23078;SDS011;11707;50.830;4.364;2022-12-18T10:04:14;17.27;;;8.60;;
23078;SDS011;11707;50.830;4.364;2022-12-18T10:20:05;13.65;;;8.23;;
23078;SDS011;11707;50.830;4.364;2022-12-18T10:25:38;18.92;;;9.18;;
23078;SDS011;11707;50.830;4.364;2022-12-18T10:28:25;13.68;;;8.75;;
23078;SDS011;11707;50.830;4.364;2022-12-18T10:30:52;15.77;;;9.35;;
23078;SDS011;11707;50.830;4.364;2022-12-18T10:33:19;13.32;;;9.07;;
23078;SDS011;11707;50.830;4.364;2022-12-18T10:35:49;20.05;;;9.65;;
23078;SDS011;11707;50.830;4.364;2022-12-18T10:40:49;12.68;;;8.43;;
23078;SDS011;11707;50.830;4.364;2022-12-18T10:46:00;16.15;;;9.68;;
23078;SDS011;11707;50.830;4.364;2022-12-18T10:48:28;17.65;;;9.43;;
23078;SDS011;11707;50.830;4.364;2022-12-18T10:50:55;15.10;;;9.65;;
23078;SDS011;11707;50.830;4.364;2022-12-18T10:53:22;16.25;;;9.23;;
23078;SDS011;11707;50.830;4.364;2022-12-18T10:55:50;15.65;;;9.57;;
23078;SDS011;11707;50.830;4.364;2022-12-18T11:01:07;17.42;;;10.05;;
23078;SDS011;11707;50.830;4.364;2022-12-18T11:04:00;13.60;;;8.82;;
23078;SDS011;11707;50.830;4.364;2022-12-18T11:06:27;16.40;;;9.23;;
23078;SDS011;11707;50.830;4.364;2022-12-18T11:09:35;17.35;;;9.32;;
23078;SDS011;11707;50.830;4.364;2022-12-18T11:11:49;20.38;;;9.73;;
23078;SDS011;11707;50.830;4.364;2022-12-18T11:14:20;13.70;;;8.52;;
23078;SDS011;11707;50.830;4.364;2022-12-18T11:16:48;19.80;;;9.43;;
23078;SDS011;11707;50.830;4.364;2022-12-18T11:19:20;13.70;;;8.50;;
23078;SDS011;11707;50.830;4.364;2022-12-18T11:21:53;16.50;;;9.77;;
23078;SDS011;11707;50.830;4.364;2022-12-18T11:24:29;15.18;;;9.27;;
23078;SDS011;11707;50.830;4.364;2022-12-18T11:26:58;13.23;;;8.73;;
23078;SDS011;11707;50.830;4.364;2022-12-18T11:29:33;15.82;;;9.55;;
23078;SDS011;11707;50.830;4.364;2022-12-18T11:38:20;15.98;;;9.05;;
23078;SDS011;11707;50.830;4.364;2022-12-18T11:46:13;17.58;;;9.00;;
23078;SDS011;11707;50.830;4.364;2022-12-18T11:48:58;17.70;;;10.73;;
23078;SDS011;11707;50.830;4.364;2022-12-18T11:51:40;14.55;;;8.50;;
23078;SDS011;11707;50.830;4.364;2022-12-18T11:54:13;15.90;;;9.05;;
23078;SDS011;11707;50.830;4.364;2022-12-18T11:57:03;21.02;;;9.77;;
23078;SDS011;11707;50.830;4.364;2022-12-18T11:59:50;23.92;;;11.95;;
23078;SDS011;11707;50.830;4.364;2022-12-18T12:05:28;20.98;;;11.45;;
23078;SDS011;11707;50.830;4.364;2022-12-18T12:16:48;20.25;;;10.68;;
23078;SDS011;11707;50.830;4.364;2022-12-18T12:19:24;17.23;;;10.48;;
23078;SDS011;11707;50.830;4.364;2022-12-18T12:21:58;20.35;;;12.02;;
23078;SDS011;11707;50.830;4.364;2022-12-18T12:24:45;20.77;;;11.10;;
23078;SDS011;11707;50.830;4.364;2022-12-18T12:35:58;18.35;;;10.40;;
23078;SDS011;11707;50.830;4.364;2022-12-18T12:38:59;21.33;;;13.20;;
23078;SDS011;11707;50.830;4.364;2022-12-18T12:41:30;20.05;;;12.10;;
23078;SDS011;11707;50.830;4.364;2022-12-18T12:44:21;22.75;;;13.32;;
23078;SDS011;11707;50.830;4.364;2022-12-18T12:46:56;25.83;;;16.30;;
23078;SDS011;11707;50.830;4.364;2022-12-18T12:49:26;24.73;;;11.10;;
23078;SDS011;11707;50.830;4.364;2022-12-18T12:52:00;22.25;;;14.23;;
23078;SDS011;11707;50.830;4.364;2022-12-18T12:54:58;24.10;;;11.13;;
23078;SDS011;11707;50.830;4.364;2022-12-18T12:57:34;21.60;;;12.27;;
23078;SDS011;11707;50.830;4.364;2022-12-18T13:00:17;19.58;;;12.75;;
23078;SDS011;11707;50.830;4.364;2022-12-18T13:05:51;27.33;;;13.30;;
23078;SDS011;11707;50.830;4.364;2022-12-18T13:08:29;27.00;;;14.48;;
23078;SDS011;11707;50.830;4.364;2022-12-18T13:10:59;27.48;;;13.35;;
23078;SDS011;11707;50.830;4.364;2022-12-18T13:13:51;27.23;;;13.63;;
23078;SDS011;11707;50.830;4.364;2022-12-18T13:16:19;24.00;;;14.50;;
23078;SDS011;11707;50.830;4.364;2022-12-18T13:18:53;20.08;;;12.23;;
23078;SDS011;11707;50.830;4.364;2022-12-18T13:23:52;25.77;;;14.02;;
23078;SDS011;11707;50.830;4.364;2022-12-18T13:31:13;31.33;;;14.23;;
23078;SDS011;11707;50.830;4.364;2022-12-18T13:36:46;23.23;;;13.27;;
23078;SDS011;11707;50.830;4.364;2022-12-18T13:41:48;24.50;;;13.25;;
23078;SDS011;11707;50.830;4.364;2022-12-18T13:44:31;24.90;;;14.63;;
23078;SDS011;11707;50.830;4.364;2022-12-18T13:46:59;25.60;;;14.48;;
23078;SDS011;11707;50.830;4.364;2022-12-18T13:49:39;26.35;;;14.48;;
23078;SDS011;11707;50.830;4.364;2022-12-18T13:52:24;23.17;;;13.27;;
23078;SDS011;11707;50.830;4.364;2022-12-18T13:54:56;29.08;;;14.98;;
23078;SDS011;11707;50.830;4.364;2022-12-18T13:59:56;27.70;;;16.85;;
23078;SDS011;11707;50.830;4.364;2022-12-18T14:02:23;27.60;;;14.70;;
23078;SDS011;11707;50.830;4.364;2022-12-18T14:04:51;27.33;;;15.20;;
23078;SDS011;11707;50.830;4.364;2022-12-18T14:09:59;21.95;;;12.95;;
23078;SDS011;11707;50.830;4.364;2022-12-18T14:12:28;24.60;;;14.63;;
23078;SDS011;11707;50.830;4.364;2022-12-18T14:18:00;30.42;;;17.27;;
23078;SDS011;11707;50.830;4.364;2022-12-18T14:20:27;29.40;;;16.50;;
23078;SDS011;11707;50.830;4.364;2022-12-18T14:22:56;27.23;;;15.90;;
23078;SDS011;11707;50.830;4.364;2022-12-18T14:25:23;27.98;;;14.98;;
23078;SDS011;11707;50.830;4.364;2022-12-18T14:27:52;30.92;;;17.88;;
23078;SDS011;11707;50.830;4.364;2022-12-18T14:30:32;48.67;;;27.45;;
23078;SDS011;11707;50.830;4.364;2022-12-18T14:33:01;42.05;;;22.20;;
23078;SDS011;11707;50.830;4.364;2022-12-18T14:35:34;32.90;;;17.55;;
23078;SDS011;11707;50.830;4.364;2022-12-18T14:40:55;30.08;;;16.48;;
23078;SDS011;11707;50.830;4.364;2022-12-18T14:43:29;29.42;;;15.80;;
23078;SDS011;11707;50.830;4.364;2022-12-18T14:46:00;31.77;;;16.38;;
23078;SDS011;11707;50.830;4.364;2022-12-18T14:51:23;31.15;;;16.65;;
23078;SDS011;11707;50.830;4.364;2022-12-18T14:56:35;32.72;;;17.02;;
23078;SDS011;11707;50.830;4.364;2022-12-18T15:06:33;33.22;;;16.52;;
23078;SDS011;11707;50.830;4.364;2022-12-18T15:09:05;25.77;;;15.60;;
23078;SDS011;11707;50.830;4.364;2022-12-18T15:11:54;27.50;;;14.85;;
23078;SDS011;11707;50.830;4.364;2022-12-18T15:14:23;26.48;;;15.60;;
23078;SDS011;11707;50.830;4.364;2022-12-18T15:16:53;27.65;;;16.05;;
23078;SDS011;11707;50.830;4.364;2022-12-18T15:19:20;29.27;;;15.75;;
23078;SDS011;11707;50.830;4.364;2022-12-18T15:21:48;29.80;;;16.35;;
23078;SDS011;11707;50.830;4.364;2022-12-18T15:24:18;33.38;;;15.43;;
23078;SDS011;11707;50.830;4.364;2022-12-18T15:26:49;29.98;;;16.00;;
23078;SDS011;11707;50.830;4.364;2022-12-18T15:29:18;30.05;;;15.73;;
23078;SDS011;11707;50.830;4.364;2022-12-18T15:32:05;30.10;;;15.03;;
23078;SDS011;11707;50.830;4.364;2022-12-18T15:34:40;29.20;;;15.50;;
23078;SDS011;11707;50.830;4.364;2022-12-18T15:37:07;31.25;;;17.13;;
23078;SDS011;11707;50.830;4.364;2022-12-18T15:39:33;31.35;;;16.67;;
23078;SDS011;11707;50.830;4.364;2022-12-18T15:42:00;34.55;;;17.40;;
23078;SDS011;11707;50.830;4.364;2022-12-18T15:44:45;30.75;;;14.75;;
23078;SDS011;11707;50.830;4.364;2022-12-18T15:47:11;30.65;;;16.65;;
23078;SDS011;11707;50.830;4.364;2022-12-18T15:49:38;26.65;;;15.30;;
23078;SDS011;11707;50.830;4.364;2022-12-18T15:52:04;33.42;;;16.73;;
23078;SDS011;11707;50.830;4.364;2022-12-18T15:54:30;33.63;;;16.13;;
23078;SDS011;11707;50.830;4.364;2022-12-18T15:57:15;28.27;;;16.27;;
23078;SDS011;11707;50.830;4.364;2022-12-18T15:59:50;31.60;;;16.33;;
23078;SDS011;11707;50.830;4.364;2022-12-18T16:02:18;28.45;;;15.32;;
23078;SDS011;11707;50.830;4.364;2022-12-18T16:04:44;26.83;;;14.77;;
23078;SDS011;11707;50.830;4.364;2022-12-18T16:07:11;25.92;;;15.13;;
23078;SDS011;11707;50.830;4.364;2022-12-18T16:09:37;27.05;;;15.18;;
23078;SDS011;11707;50.830;4.364;2022-12-18T16:12:04;31.25;;;15.40;;
23078;SDS011;11707;50.830;4.364;2022-12-18T16:14:31;25.50;;;13.85;;
23078;SDS011;11707;50.830;4.364;2022-12-18T16:16:58;26.58;;;14.25;;
23078;SDS011;11707;50.830;4.364;2022-12-18T16:19:26;22.90;;;12.77;;
23078;SDS011;11707;50.830;4.364;2022-12-18T16:21:54;31.70;;;15.60;;
23078;SDS011;11707;50.830;4.364;2022-12-18T16:24:29;30.20;;;14.90;;
23078;SDS011;11707;50.830;4.364;2022-12-18T16:26:57;25.85;;;14.18;;
23078;SDS011;11707;50.830;4.364;2022-12-18T16:29:24;28.75;;;16.70;;
23078;SDS011;11707;50.830;4.364;2022-12-18T16:31:56;29.42;;;14.10;;
23078;SDS011;11707;50.830;4.364;2022-12-18T16:34:32;31.35;;;14.95;;
23078;SDS011;11707;50.830;4.364;2022-12-18T16:37:06;28.52;;;15.77;;
23078;SDS011;11707;50.830;4.364;2022-12-18T16:39:33;27.75;;;15.07;;
23078;SDS011;11707;50.830;4.364;2022-12-18T16:42:00;26.95;;;15.05;;
23078;SDS011;11707;50.830;4.364;2022-12-18T16:44:27;26.00;;;13.18;;
23078;SDS011;11707;50.830;4.364;2022-12-18T16:46:52;27.13;;;14.80;;
23078;SDS011;11707;50.830;4.364;2022-12-18T16:49:18;27.42;;;14.07;;